Карточка аэропорта UAKK

Внимание!
Информация на этой странице в стадии наполнения.
Если вы не увидели какой-то информации, или заметили неточность - пожалуйста сообщите нам!
Спасибо!
Команда RU-STAFF
Название аэропортаКараганда
Название аэропорта (англ.)Karaganda
Превышение1768 ft. (538.9 m.)
Координаты49°40.302', 73°20.118'
Высота перехода10000
Эшелон переходаby ATC
Коды ответчика0630-0637, 7220-7227
Зона ОрВДАстана РПИ (UACN)
Данные METARUAKK 221030Z 23005MPS 200V270 9999 SCT050CB 17/07 Q1019 NOSIG RMK QFE717/0956
Проноз погоды (TAF)UAKK 220501Z 2206/2306 26006MPS 9999 BKN030 BKN100 TX18/2209Z TN04/2301Z TEMPO 2206/2213 27012MPS -SHRA BKN020CB BECMG 2213/2215 20004MPS TEMPO 2302/2306 24005MPS
NOTAMshow/hide NOTAM
AWOS   TABLE

Информация о ВПП

ВПП Длина ВПП (м.) Покрытие Курс ВПП Частота ILS
053601Железобетон50109.9
233601Железобетон230111.7

Диспетчерские позиции




Спутниковое изображение